Time;durP1;ratioP1;P1;durP2;ratioP2;P2;SDS_P1;SDS_P2;PMS_P1;PMS_P2;Temp;Humidity;BMP_temperature;BMP_pressure;BME280_temperature;BME280_humidity;BME280_pressure;Samples;Min_cycle;Max_cycle;Signal;HPM_P1;HPM_P2
2021/09/15 00:01:15;;;;;;;10.18;7.60;;;;;;;13.03;93.04;100193.09;4972437;28;20627;-64
2021/09/15 00:04:00;;;;;;;10.00;7.07;;;;;;;13.03;92.97;100194.94;4972378;28;20441;-63
2021/09/15 00:06:45;;;;;;;10.65;7.80;;;;;;;13.03;93.38;100190.38;4971965;28;20148;-64
2021/09/15 00:09:30;;;;;;;12.48;9.32;;;;;;;13.02;93.45;100186.00;4972262;28;20057;-64
2021/09/15 00:12:15;;;;;;;11.85;9.00;;;;;;;13.05;93.65;100180.28;4972312;28;20066;-66
2021/09/15 00:15:01;;;;;;;10.27;7.32;;;;;;;13.12;93.15;100192.09;4972562;28;20148;-65
2021/09/15 00:17:47;;;;;;;11.43;8.82;;;;;;;13.17;92.75;100195.16;4971534;28;20551;-64
2021/09/15 00:20:32;;;;;;;11.15;8.95;;;;;;;13.11;92.89;100193.09;4972340;28;20170;-63
2021/09/15 00:23:17;;;;;;;14.68;8.88;;;;;;;13.05;93.19;100191.06;4972312;28;20062;-64
2021/09/15 00:26:02;;;;;;;9.95;7.55;;;;;;;13.03;93.36;100187.69;4971992;28;20058;-61
2021/09/15 00:28:47;;;;;;;11.52;8.75;;;;;;;13.03;93.58;100190.38;4972198;28;20066;-62
2021/09/15 00:31:32;;;;;;;11.07;8.85;;;;;;;13.03;93.44;100187.69;4972038;28;20065;-63
2021/09/15 00:34:18;;;;;;;11.25;8.98;;;;;;;13.05;93.48;100180.28;4976483;28;20566;-61
2021/09/15 00:37:03;;;;;;;12.15;8.52;;;;;;;13.13;93.22;100180.31;4975597;28;20062;-63
2021/09/15 00:39:48;;;;;;;13.70;9.05;;;;;;;13.20;93.05;100172.47;4976000;28;20689;-63
2021/09/15 00:42:34;;;;;;;10.50;8.50;;;;;;;13.30;92.64;100177.72;4975799;28;20193;-64
2021/09/15 00:45:19;;;;;;;13.38;9.07;;;;;;;13.40;92.51;100178.44;4975983;28;20058;-63
2021/09/15 00:48:05;;;;;;;11.55;8.02;;;;;;;13.51;91.86;100174.59;4975467;28;20058;-64
2021/09/15 00:50:51;;;;;;;10.65;7.93;;;;;;;13.56;91.71;100167.69;4975707;28;20058;-64
2021/09/15 00:53:36;;;;;;;8.93;6.78;;;;;;;13.60;91.56;100179.81;4975666;28;20129;-62
2021/09/15 00:56:21;;;;;;;9.98;7.20;;;;;;;13.61;91.33;100173.41;4975134;28;20460;-62
2021/09/15 00:59:06;;;;;;;8.95;6.55;;;;;;;13.62;91.19;100175.13;4975285;28;20425;-62
2021/09/15 01:01:52;;;;;;;10.32;7.68;;;;;;;13.63;91.45;100171.41;4975717;28;20516;-60
2021/09/15 01:04:37;;;;;;;8.40;6.97;;;;;;;13.67;91.33;100172.75;4975369;28;20520;-63
2021/09/15 01:07:23;;;;;;;10.93;7.43;;;;;;;13.71;91.14;100167.88;4975193;28;20125;-62
2021/09/15 01:10:10;;;;;;;13.75;8.38;;;;;;;13.73;91.21;100161.31;4975147;28;20708;-62
2021/09/15 01:12:55;;;;;;;11.18;8.57;;;;;;;13.74;91.30;100163.00;4975373;28;20551;-62
2021/09/15 01:15:40;;;;;;;11.25;8.70;;;;;;;13.81;91.13;100162.31;4975512;28;20065;-61
2021/09/15 01:18:26;;;;;;;10.43;8.40;;;;;;;13.84;91.12;100146.63;4975418;28;20058;-61
2021/09/15 01:21:13;;;;;;;13.45;9.70;;;;;;;13.87;91.08;100150.88;4974957;28;20105;-62
2021/09/15 01:23:58;;;;;;;13.52;8.63;;;;;;;13.92;90.87;100148.50;4975179;28;20484;-62
2021/09/15 01:26:43;;;;;;;15.05;12.43;;;;;;;13.93;90.83;100148.34;4974954;28;20424;-63
2021/09/15 01:29:30;;;;;;;13.45;10.63;;;;;;;13.95;90.79;100142.78;4975345;28;20061;-65
2021/09/15 01:32:16;;;;;;;15.57;11.63;;;;;;;13.95;90.72;100143.63;4975265;28;20400;-64
2021/09/15 01:35:01;;;;;;;13.13;10.25;;;;;;;13.98;90.83;100147.84;4975359;28;20082;-64
2021/09/15 01:37:48;;;;;;;13.30;10.27;;;;;;;13.99;90.78;100133.34;4974937;28;20078;-63
2021/09/15 01:40:34;;;;;;;13.30;10.40;;;;;;;14.01;90.64;100136.72;4974903;28;20058;-63
2021/09/15 01:43:18;;;;;;;12.90;10.10;;;;;;;14.02;90.50;100143.78;4975465;28;20156;-62
2021/09/15 01:46:03;;;;;;;13.13;9.57;;;;;;;14.04;90.62;100136.38;4974404;28;20673;-64
2021/09/15 01:48:48;;;;;;;13.32;10.88;;;;;;;14.04;90.91;100136.38;4975216;28;20171;-63
2021/09/15 01:51:33;;;;;;;14.30;12.25;;;;;;;14.05;90.73;100138.91;4974840;28;20054;-62
2021/09/15 01:54:19;;;;;;;18.80;11.60;;;;;;;14.08;90.57;100136.88;4974762;28;20062;-63
2021/09/15 01:57:05;;;;;;;13.52;10.10;;;;;;;14.11;90.42;100137.38;4975083;28;20061;-62
2021/09/15 01:59:50;;;;;;;13.93;9.90;;;;;;;14.14;90.29;100133.50;4974754;28;20054;-62
2021/09/15 02:02:36;;;;;;;15.70;11.88;;;;;;;14.14;90.36;100122.72;4974571;28;20086;-63
2021/09/15 02:05:21;;;;;;;18.00;11.05;;;;;;;14.14;90.75;100120.84;4974485;28;20070;-62
2021/09/15 02:08:06;;;;;;;15.40;11.32;;;;;;;14.14;90.48;100118.16;4974199;28;20062;-64
2021/09/15 02:10:53;;;;;;;15.82;10.75;;;;;;;14.14;90.53;100110.06;4974786;28;20055;-62
2021/09/15 02:13:38;;;;;;;16.00;10.57;;;;;;;14.14;90.66;100110.06;4974325;28;20616;-62
2021/09/15 02:16:24;;;;;;;14.55;10.10;;;;;;;14.16;90.59;100105.31;4974045;28;20054;-64
2021/09/15 02:19:10;;;;;;;13.07;9.37;;;;;;;14.17;90.54;100106.16;4974206;28;20511;-63
2021/09/15 02:21:55;;;;;;;14.75;11.18;;;;;;;14.20;90.66;100103.13;4974317;28;20058;-64
2021/09/15 02:24:40;;;;;;;10.43;8.38;;;;;;;14.21;90.61;100097.56;4974067;28;20409;-63
2021/09/15 02:27:26;;;;;;;10.77;8.00;;;;;;;14.21;90.68;100097.56;4974048;28;20149;-64
2021/09/15 02:30:11;;;;;;;;;;;;;;;14.17;90.98;100095.38;4974424;28;20417;-63
2021/09/15 02:32:56;;;;;;;11.23;8.25;;;;;;;14.17;90.97;100101.59;4973642;28;19933;-63
2021/09/15 02:35:41;;;;;;;10.57;8.68;;;;;;;14.16;91.05;100101.78;4974180;28;20181;-64
2021/09/15 02:38:26;;;;;;;12.23;9.35;;;;;;;14.14;90.92;100095.72;4974175;28;20053;-63
2021/09/15 02:41:11;;;;;;;11.90;9.25;;;;;;;14.15;91.21;100100.94;4973625;28;20057;-64
2021/09/15 02:43:57;;;;;;;16.55;12.18;;;;;;;14.12;91.37;100101.28;4973781;28;20106;-64
2021/09/15 02:46:43;;;;;;;12.65;10.43;;;;;;;14.13;91.46;100096.75;4973241;28;20084;-65
2021/09/15 02:49:28;;;;;;;11.35;8.82;;;;;;;14.17;91.32;100098.91;4973295;28;20062;-64
2021/09/15 02:52:13;;;;;;;18.67;11.50;;;;;;;14.17;91.34;100084.56;4973857;28;20432;-62
2021/09/15 02:54:58;;;;;;;14.95;10.80;;;;;;;14.17;91.45;100093.50;4973268;28;20468;-63
2021/09/15 02:57:43;;;;;;;15.18;10.85;;;;;;;14.18;91.45;100084.41;4973182;28;20488;-63
2021/09/15 03:00:30;;;;;;;12.45;10.38;;;;;;;14.22;91.22;100080.38;4973005;28;20177;-64
2021/09/15 03:03:16;;;;;;;15.20;9.55;;;;;;;14.25;91.06;100085.41;4973375;28;20113;-63
2021/09/15 03:06:01;;;;;;;14.73;10.95;;;;;;;14.25;91.22;100079.16;4972917;28;20061;-63
2021/09/15 03:08:46;;;;;;;13.85;11.15;;;;;;;14.25;91.15;100074.63;4973428;28;20066;-63
2021/09/15 03:11:32;;;;;;;12.10;8.77;;;;;;;14.26;91.21;100079.00;4973251;28;20057;-62
2021/09/15 03:14:18;;;;;;;8.80;7.32;;;;;;;14.26;91.18;100081.69;4973050;28;20054;-66
2021/09/15 03:17:05;;;;;;;11.80;8.30;;;;;;;14.24;91.19;100082.88;4972862;28;20092;-63
2021/09/15 03:19:50;;;;;;;9.98;8.55;;;;;;;14.20;91.55;100071.56;4973715;28;20524;-65
2021/09/15 03:22:35;;;;;;;13.48;9.82;;;;;;;14.15;91.63;100076.66;4973136;28;20137;-64
2021/09/15 03:25:20;;;;;;;10.15;8.10;;;;;;;14.09;91.72;100074.66;4972911;28;20536;-63
2021/09/15 03:28:05;;;;;;;9.73;7.85;;;;;;;14.06;91.98;100080.38;4972844;28;20520;-63
2021/09/15 03:30:50;;;;;;;11.60;8.25;;;;;;;14.02;92.30;100068.25;4973020;28;20061;-63
2021/09/15 03:33:36;;;;;;;10.97;8.03;;;;;;;14.01;92.47;100061.16;4972764;28;20467;-63
2021/09/15 03:36:22;;;;;;;10.43;7.53;;;;;;;14.00;92.52;100067.56;4972777;28;20839;-63
2021/09/15 03:39:07;;;;;;;8.63;6.82;;;;;;;14.05;92.41;100068.72;4972621;28;20061;-64
2021/09/15 03:41:52;;;;;;;10.75;8.90;;;;;;;14.07;92.09;100060.47;4972818;28;20117;-63
2021/09/15 03:44:37;;;;;;;9.85;7.28;;;;;;;14.11;92.04;100058.28;4972708;28;20128;-64
2021/09/15 03:47:22;;;;;;;15.10;9.50;;;;;;;14.10;91.83;100057.44;4972020;28;20060;-64
2021/09/15 03:50:10;;;;;;;19.15;10.63;;;;;;;14.05;92.02;100057.94;4972698;28;20098;-63
2021/09/15 03:52:55;;;;;;;15.15;11.60;;;;;;;13.99;92.23;100052.41;5002107;22;20052;-64
2021/09/15 03:55:40;;;;;;;21.60;12.77;;;;;;;13.93;92.60;100047.66;5019279;28;20534;-63
2021/09/15 03:58:25;;;;;;;18.05;12.25;;;;;;;13.87;92.77;100054.59;5010698;28;20056;-63
2021/09/15 04:01:11;;;;;;;14.15;10.73;;;;;;;13.85;93.13;100050.38;5010997;28;20200;-63
2021/09/15 04:03:56;;;;;;;12.73;9.82;;;;;;;13.79;93.27;100040.28;5010926;28;20064;-62
2021/09/15 04:06:42;;;;;;;18.17;12.95;;;;;;;13.68;93.76;100036.06;5010091;28;20510;-63
2021/09/15 04:09:27;;;;;;;14.38;11.07;;;;;;;13.64;93.91;100035.56;5010950;28;20189;-63
2021/09/15 04:12:12;;;;;;;15.65;12.02;;;;;;;13.56;94.15;100027.47;5011025;28;20072;-63
2021/09/15 04:14:57;;;;;;;16.40;11.13;;;;;;;13.53;94.44;100025.13;5010677;28;20056;-63
2021/09/15 04:17:42;;;;;;;13.75;10.25;;;;;;;13.50;94.71;100028.16;5010744;28;20287;-63
2021/09/15 04:20:27;;;;;;;16.50;11.10;;;;;;;13.49;94.74;100028.28;5010606;28;20053;-65
2021/09/15 04:23:17;;;;;;;16.70;11.10;;;;;;;13.46;94.75;100029.47;5010978;28;20189;-64
2021/09/15 04:32:07;;;;;;;12.48;10.27;;;;;;;13.40;95.03;100022.09;5010948;28;20053;-62
2021/09/15 04:34:52;;;;;;;12.07;9.45;;;;;;;13.44;94.89;100021.56;5010751;28;20502;-63
2021/09/15 04:37:37;;;;;;;13.70;9.85;;;;;;;13.51;94.70;100015.53;5010443;28;20511;-63
2021/09/15 04:40:24;;;;;;;15.40;9.53;;;;;;;13.57;94.58;100023.75;5010537;28;20505;-63
2021/09/15 04:43:09;;;;;;;14.55;9.52;;;;;;;13.65;94.26;100022.94;5010736;28;20104;-62
2021/09/15 04:45:54;;;;;;;11.00;8.82;;;;;;;13.73;94.09;100012.97;5010125;28;20103;-63
2021/09/15 04:48:39;;;;;;;11.52;8.95;;;;;;;13.80;93.70;100025.78;5010807;28;20156;-64
2021/09/15 04:51:23;;;;;;;13.23;9.20;;;;;;;13.89;93.60;100030.16;5010607;28;20053;-64
2021/09/15 04:54:08;;;;;;;15.88;9.90;;;;;;;13.93;93.14;100015.31;5010852;28;20057;-63
2021/09/15 04:56:55;;;;;;;13.98;10.40;;;;;;;13.96;93.00;100015.78;5010236;28;20070;-63
2021/09/15 04:59:40;;;;;;;12.38;9.50;;;;;;;14.02;92.85;100014.28;5010539;28;20073;-63
2021/09/15 05:02:25;;;;;;;11.35;9.10;;;;;;;14.09;92.57;100017.97;5010287;28;20519;-63
2021/09/15 05:05:11;;;;;;;12.32;9.68;;;;;;;14.16;92.41;100015.41;5010643;28;20080;-65
2021/09/15 05:07:56;;;;;;;14.25;10.45;;;;;;;14.20;92.06;100006.78;5010024;28;20061;-65
2021/09/15 05:10:41;;;;;;;12.88;9.82;;;;;;;14.25;91.77;100006.28;5011036;28;20053;-62
2021/09/15 05:13:27;;;;;;;19.13;11.98;;;;;;;14.27;91.53;100002.41;5010325;28;20531;-63
2021/09/15 05:16:12;;;;;;;11.85;9.50;;;;;;;14.32;91.37;100010.84;5010417;28;20197;-63
2021/09/15 05:18:57;;;;;;;13.63;10.63;;;;;;;14.35;90.99;100009.63;5012039;28;20061;-63
2021/09/15 05:21:42;;;;;;;13.27;10.18;;;;;;;14.42;90.98;100010.59;5014227;28;20053;-63
2021/09/15 05:24:27;;;;;;;12.77;10.80;;;;;;;14.47;90.85;100000.16;5013698;28;20141;-61
2021/09/15 05:27:12;;;;;;;13.35;9.95;;;;;;;14.52;90.60;100007.72;5013626;28;20057;-64
2021/09/15 05:29:59;;;;;;;12.30;9.25;;;;;;;14.60;90.50;100010.41;5013533;28;20060;-63
2021/09/15 05:32:44;;;;;;;13.18;9.75;;;;;;;14.67;90.22;100019.47;5013734;28;20069;-64
2021/09/15 05:35:28;;;;;;;15.55;12.02;;;;;;;14.75;89.89;100015.91;5013914;28;20104;-62
2021/09/15 05:38:15;;;;;;;15.18;10.77;;;;;;;14.81;89.69;100012.50;5013201;28;20069;-63
2021/09/15 05:41:00;;;;;;;18.17;12.52;;;;;;;14.87;89.28;100009.94;5013750;28;20115;-64
2021/09/15 05:43:44;;;;;;;14.82;11.93;;;;;;;14.93;89.05;100008.38;5013376;28;20172;-63
2021/09/15 05:46:31;;;;;;;13.15;11.13;;;;;;;15.00;89.09;100019.31;5013097;28;20196;-66
2021/09/15 05:49:16;;;;;;;13.45;9.77;;;;;;;15.08;88.88;100016.56;5013606;28;20071;-63
2021/09/15 05:52:01;;;;;;;18.30;12.85;;;;;;;15.14;88.65;100023.94;5013560;28;20111;-63
2021/09/15 05:54:46;;;;;;;15.38;11.82;;;;;;;15.22;88.29;100023.91;5013453;28;20439;-62
2021/09/15 05:57:31;;;;;;;17.67;13.95;;;;;;;15.30;87.70;100023.00;5012919;28;20431;-63
2021/09/15 06:00:17;;;;;;;21.20;13.97;;;;;;;15.37;87.24;100016.69;5013477;28;20065;-62
2021/09/15 06:03:03;;;;;;;24.25;14.75;;;;;;;15.46;87.16;100015.59;5006621;28;20316;-62
2021/09/15 06:05:49;;;;;;;14.85;12.27;;;;;;;15.60;86.83;100010.47;4989328;28;20073;-62
2021/09/15 06:08:33;;;;;;;22.25;14.60;;;;;;;15.75;85.99;100005.94;4994518;28;20507;-63
2021/09/15 06:11:19;;;;;;;19.15;14.15;;;;;;;15.89;85.56;100007.84;5012825;28;20052;-62
2021/09/15 06:14:04;;;;;;;20.48;14.18;;;;;;;15.99;84.99;100003.00;5002419;28;20524;-63
2021/09/15 06:16:49;;;;;;;19.63;14.20;;;;;;;16.11;83.85;100003.38;4992854;28;20061;-62
2021/09/15 06:19:35;;;;;;;18.55;13.95;;;;;;;16.27;83.50;100005.06;4993387;28;20053;-62
2021/09/15 06:22:20;;;;;;;19.88;12.93;;;;;;;16.45;82.98;100005.50;4993196;28;20136;-63
2021/09/15 06:25:06;;;;;;;18.07;13.03;;;;;;;16.54;82.00;99998.97;4992950;28;20057;-63
2021/09/15 06:27:54;;;;;;;21.20;12.45;;;;;;;16.75;81.41;100002.81;4993107;28;20309;-63
2021/09/15 06:30:40;;;;;;;16.52;11.95;;;;;;;16.90;80.50;99998.19;4992416;28;20262;-63
2021/09/15 06:33:25;;;;;;;;;;;;;;;17.09;80.16;99997.56;4993974;28;20057;-64
2021/09/15 06:36:11;;;;;;;16.00;12.23;;;;;;;17.27;79.14;99993.56;4992575;28;19936;-64
2021/09/15 06:38:57;;;;;;;19.58;13.07;;;;;;;17.39;78.98;99986.59;4998615;28;20056;-64
2021/09/15 06:41:42;;;;;;;21.75;14.15;;;;;;;17.51;78.00;99987.75;5012351;28;20065;-64
2021/09/15 06:44:27;;;;;;;16.95;12.13;;;;;;;17.76;77.55;99986.34;5011888;28;20060;-63
2021/09/15 06:47:12;;;;;;;17.00;13.23;;;;;;;17.93;76.78;99980.63;5006973;28;20065;-64
2021/09/15 06:49:57;;;;;;;15.52;12.48;;;;;;;17.97;76.33;99988.16;5012391;28;20515;-63
2021/09/15 06:52:44;;;;;;;15.88;10.75;;;;;;;18.15;75.69;99984.94;5012184;28;20060;-63
2021/09/15 06:55:29;;;;;;;12.68;11.02;;;;;;;18.37;75.39;99985.69;5012396;28;20056;-63
2021/09/15 06:58:14;;;;;;;15.70;10.63;;;;;;;18.63;74.50;99979.53;5012224;28;20056;-62
2021/09/15 07:00:59;;;;;;;15.25;11.25;;;;;;;18.71;73.51;99976.69;5012116;28;20049;-62
2021/09/15 07:03:44;;;;;;;17.02;10.73;;;;;;;18.77;73.62;99983.19;5011763;28;20073;-62
2021/09/15 07:06:29;;;;;;;12.53;10.10;;;;;;;18.81;73.77;99985.28;5011854;28;20193;-63
2021/09/15 07:09:15;;;;;;;14.10;11.57;;;;;;;18.59;73.87;99983.72;5012175;28;20135;-64
2021/09/15 07:12:01;;;;;;;13.98;10.68;;;;;;;18.58;73.50;99982.00;5011680;28;20057;-62
2021/09/15 07:14:46;;;;;;;13.15;10.13;;;;;;;18.53;74.36;99992.66;4992659;28;20460;-63
2021/09/15 07:17:31;;;;;;;16.97;9.73;;;;;;;18.59;74.83;99984.56;4992180;28;20056;-61
2021/09/15 07:20:16;;;;;;;12.35;9.80;;;;;;;18.69;74.91;99976.88;4991843;28;20313;-64
2021/09/15 07:23:01;;;;;;;15.18;10.32;;;;;;;18.83;74.67;99980.50;4992065;28;20101;-63
2021/09/15 07:25:48;;;;;;;14.47;10.57;;;;;;;18.89;73.01;99971.50;4991663;28;20057;-63
2021/09/15 07:28:33;;;;;;;12.45;10.05;;;;;;;19.02;72.60;99987.03;4992252;28;20416;-63
2021/09/15 07:31:18;;;;;;;11.77;9.63;;;;;;;19.15;73.17;99983.50;4991767;28;20053;-63
2021/09/15 07:34:03;;;;;;;14.02;10.55;;;;;;;18.95;72.45;99978.88;4992343;28;20519;-63
2021/09/15 07:36:48;;;;;;;13.53;9.50;;;;;;;19.06;72.64;99979.28;4991836;28;20132;-62
2021/09/15 07:39:33;;;;;;;13.00;9.73;;;;;;;19.19;72.07;99973.91;4992260;28;20164;-62
2021/09/15 07:42:19;;;;;;;18.23;10.13;;;;;;;19.18;71.58;99967.63;4991671;28;20073;-63
2021/09/15 07:45:06;;;;;;;14.88;9.05;;;;;;;19.40;70.70;99962.81;4991843;28;20057;-64
2021/09/15 07:47:51;;;;;;;16.30;10.05;;;;;;;19.39;70.53;99961.13;4991565;28;20061;-63
2021/09/15 07:50:36;;;;;;;12.60;8.90;;;;;;;19.79;69.79;99959.31;4991694;28;20136;-64
2021/09/15 07:53:21;;;;;;;10.25;8.70;;;;;;;20.05;69.38;99961.16;4991640;28;20057;-64
2021/09/15 07:56:07;;;;;;;12.98;8.70;;;;;;;20.24;68.78;99961.28;4990947;28;20061;-63
2021/09/15 07:58:53;;;;;;;11.60;9.07;;;;;;;20.31;68.96;99967.56;4991657;28;20425;-64
2021/09/15 08:01:38;;;;;;;14.15;8.90;;;;;;;20.12;67.68;99964.66;4991368;28;20058;-64
2021/09/15 08:04:23;;;;;;;11.03;8.43;;;;;;;20.22;68.15;99969.69;4991529;28;20065;-63
2021/09/15 08:07:08;;;;;;;10.73;8.70;;;;;;;20.10;68.62;99966.78;4991062;28;20069;-63
2021/09/15 08:09:53;;;;;;;9.18;7.68;;;;;;;20.20;68.71;99968.22;4991606;28;20065;-63
2021/09/15 08:12:38;;;;;;;11.30;7.90;;;;;;;20.23;68.01;99970.53;4991032;28;20166;-63
2021/09/15 08:15:25;;;;;;;12.85;6.38;;;;;;;;;;5022969;22;20056;-63
2021/09/15 08:18:09;;;;;;;9.82;7.82;;;;;;;20.77;67.03;99972.88;5030901;28;20172;-61
2021/09/15 08:20:54;;;;;;;8.68;7.40;;;;;;;20.76;66.78;99970.38;5030499;28;20051;-63
2021/09/15 08:23:39;;;;;;;12.77;7.20;;;;;;;20.73;65.90;99967.03;5022664;28;20108;-63
2021/09/15 08:26:24;;;;;;;8.82;6.10;;;;;;;20.92;66.09;99962.53;5031111;28;20060;-62
2021/09/15 08:29:09;;;;;;;11.53;7.20;;;;;;;20.82;65.48;99964.88;5028601;28;20098;-63
2021/09/15 08:31:56;;;;;;;9.43;7.50;;;;;;;20.95;66.51;99974.88;5010132;28;20057;-63
2021/09/15 08:34:40;;;;;;;8.77;6.78;;;;;;;20.97;66.32;99962.72;5010843;28;20057;-62
2021/09/15 08:37:26;;;;;;;9.60;7.38;;;;;;;20.87;68.76;99973.25;5010620;28;20056;-62
2021/09/15 08:40:12;;;;;;;7.72;6.18;;;;;;;20.81;67.24;99967.81;5011289;28;20061;-64
2021/09/15 08:42:56;;;;;;;8.85;6.97;;;;;;;20.75;68.00;99958.63;5011078;28;20188;-63
2021/09/15 08:45:41;;;;;;;9.05;6.78;;;;;;;20.80;67.83;99950.63;5010302;28;20072;-63
2021/09/15 08:48:29;;;;;;;10.30;6.50;;;;;;;20.75;68.16;99955.06;5010959;28;20151;-63
2021/09/15 08:51:16;;;;;;;7.32;6.35;;;;;;;20.67;68.56;99956.16;5010710;28;20296;-63
2021/09/15 08:54:02;;;;;;;10.13;7.00;;;;;;;20.71;66.53;99958.22;5012499;28;20060;-64
2021/09/15 08:56:47;;;;;;;8.85;5.97;;;;;;;21.11;66.77;99955.28;5014014;28;20524;-62
2021/09/15 08:59:32;;;;;;;8.02;6.65;;;;;;;21.43;64.76;99955.28;5014870;28;20065;-63
2021/09/15 09:02:17;;;;;;;11.80;6.70;;;;;;;21.70;64.91;99950.47;5014814;28;20049;-64
2021/09/15 09:05:04;;;;;;;8.02;6.03;;;;;;;21.79;63.31;99955.41;5014212;28;20056;-63
2021/09/15 09:07:50;;;;;;;11.48;6.40;;;;;;;21.94;63.99;99960.53;5014130;28;20056;-64
2021/09/15 09:10:35;;;;;;;13.57;6.70;;;;;;;22.26;62.47;99944.88;5014222;28;20502;-63
2021/09/15 09:13:20;;;;;;;14.07;6.68;;;;;;;22.27;61.23;99943.00;5014449;28;20431;-64
2021/09/15 09:16:06;;;;;;;11.02;7.28;;;;;;;22.24;60.79;99936.06;5013535;28;20057;-62
2021/09/15 09:19:03;;;;;;;12.32;7.63;;;;;;;22.54;60.72;99932.56;5014233;28;20061;-63
2021/09/15 09:21:53;;;;;;;12.25;7.53;;;;;;;22.56;60.92;99928.53;5013616;28;20184;-64
2021/09/15 09:24:52;;;;;;;10.65;7.45;;;;;;;22.89;60.23;99928.13;5014112;28;20056;-62
2021/09/15 09:27:37;;;;;;;10.73;6.72;;;;;;;23.19;58.53;99927.25;5013718;28;20064;-62
2021/09/15 09:30:36;;;;;;;8.40;6.30;;;;;;;23.75;59.49;99920.47;5013810;28;20136;-67
2021/09/15 09:33:21;;;;;;;14.23;6.90;;;;;;;23.94;56.88;99918.44;5014034;28;20131;-63
2021/09/15 09:36:08;;;;;;;11.13;6.30;;;;;;;24.26;56.59;99919.69;5013275;28;20135;-62
2021/09/15 09:38:55;;;;;;;9.82;6.35;;;;;;;24.01;55.04;99903.53;5012543;28;20056;-63
2021/09/15 09:41:40;;;;;;;7.97;6.00;;;;;;;24.59;55.15;99910.81;5013312;28;20155;-63
2021/09/15 09:44:27;;;;;;;8.35;6.35;;;;;;;24.90;54.05;99908.69;5013709;28;20127;-65
2021/09/15 09:47:19;;;;;;;10.52;6.28;;;;;;;24.69;53.93;99899.22;5013195;28;20160;-64
2021/09/15 09:50:07;;;;;;;8.95;6.47;;;;;;;24.82;52.58;99898.09;5014230;28;20424;-63
2021/09/15 09:52:58;;;;;;;7.25;5.38;;;;;;;24.88;55.26;99903.44;5013296;28;20104;-62
2021/09/15 09:55:46;;;;;;;6.50;5.53;;;;;;;24.75;55.25;99901.81;5013255;28;20060;-64
2021/09/15 09:58:31;;;;;;;6.63;5.10;;;;;;;25.18;53.25;99903.16;5013453;28;20131;-64
2021/09/15 10:01:22;;;;;;;9.70;6.10;;;;;;;25.32;52.50;99899.00;5013345;28;20203;-64
2021/09/15 10:04:07;;;;;;;9.25;6.28;;;;;;;25.72;51.93;99895.31;5012516;28;20131;-64
2021/09/15 10:06:52;;;;;;;7.15;5.65;;;;;;;25.31;54.97;99902.00;5012537;28;20197;-63
2021/09/15 10:09:39;;;;;;;8.98;6.32;;;;;;;25.29;52.73;99894.03;5013221;28;20115;-62
2021/09/15 10:12:25;;;;;;;9.77;6.85;;;;;;;25.51;50.77;99891.38;5013308;28;20053;-62
2021/09/15 10:15:12;;;;;;;8.75;6.43;;;;;;;25.91;51.75;99888.41;4993462;28;20069;-61
2021/09/15 10:17:58;;;;;;;9.20;6.28;;;;;;;25.65;54.14;99881.69;4993319;28;20057;-63
2021/09/15 10:20:47;;;;;;;8.75;5.90;;;;;;;26.08;51.28;99874.66;4993504;28;20120;-64
2021/09/15 10:23:37;;;;;;;7.95;5.57;;;;;;;26.05;53.30;99888.09;4993502;28;20069;-63
2021/09/15 10:26:27;;;;;;;11.38;7.05;;;;;;;25.86;51.22;99891.09;4992890;28;20053;-63
2021/09/15 10:29:26;;;;;;;8.98;6.70;;;;;;;25.82;51.49;99880.88;4992862;28;20060;-63
2021/09/15 10:32:13;;;;;;;13.35;7.50;;;;;;;25.90;51.98;99885.94;4992987;28;20056;-63
2021/09/15 10:34:58;;;;;;;9.10;7.32;;;;;;;25.86;53.33;99896.59;4992813;28;20057;-62
2021/09/15 10:37:53;;;;;;;9.25;7.95;;;;;;;25.66;52.45;99886.09;4992387;28;20062;-63
2021/09/15 10:40:44;;;;;;;9.23;6.80;;;;;;;25.69;52.62;99887.53;4992797;28;20093;-63
2021/09/15 10:43:44;;;;;;;8.07;6.38;;;;;;;25.32;55.89;99888.03;4992899;28;20383;-63
2021/09/15 10:46:30;;;;;;;9.82;6.78;;;;;;;25.34;55.66;99888.63;4992531;28;20104;-62
2021/09/15 10:49:41;;;;;;;12.25;7.97;;;;;;;24.83;56.61;99883.28;4992935;28;20069;-63
2021/09/15 10:52:37;;;;;;;10.60;6.55;;;;;;;24.77;56.23;99890.59;4992642;28;20065;-61
2021/09/15 10:55:24;;;;;;;9.43;6.45;;;;;;;24.53;57.78;99881.63;4992417;28;20311;-63
2021/09/15 10:58:12;;;;;;;7.95;6.35;;;;;;;24.07;56.96;99877.91;4992722;28;20527;-63
2021/09/15 11:00:58;;;;;;;9.57;8.13;;;;;;;23.94;58.51;99889.13;4992335;28;20068;-61
2021/09/15 11:03:53;;;;;;;9.40;7.07;;;;;;;23.68;60.52;99884.97;4992419;28;20049;-61
2021/09/15 11:06:38;;;;;;;9.23;5.95;;;;;;;23.49;60.17;99889.69;4992434;28;20170;-63
2021/09/15 11:09:39;;;;;;;8.35;5.85;;;;;;;22.95;61.78;99898.97;4992404;28;20145;-63
2021/09/15 11:12:45;;;;;;;12.15;6.03;;;;;;;22.47;64.10;99897.91;4992206;28;20105;-62
2021/09/15 11:15:32;;;;;;;7.82;6.10;;;;;;;21.89;68.44;99916.63;4992388;28;20057;-62
2021/09/15 11:18:21;;;;;;;9.40;5.82;;;;;;;21.33;71.58;99933.13;4992373;28;20423;-63
2021/09/15 11:21:11;;;;;;;7.82;5.72;;;;;;;20.86;74.81;99927.94;4992906;28;20065;-63
2021/09/15 11:23:57;;;;;;;10.23;6.72;;;;;;;20.20;78.96;99917.28;4992098;28;20054;-62
2021/09/15 11:26:49;;;;;;;15.35;7.57;;;;;;;19.93;80.79;99921.97;4991733;28;20479;-63
2021/09/15 11:29:40;;;;;;;12.32;7.65;;;;;;;19.81;82.81;99923.69;4992265;28;20139;-61
2021/09/15 11:32:25;;;;;;;11.65;7.00;;;;;;;19.97;82.53;99916.94;4992026;28;20697;-62
2021/09/15 11:35:10;;;;;;;17.67;8.00;;;;;;;20.25;82.96;99924.84;4991955;28;20467;-62
2021/09/15 11:37:57;;;;;;;12.95;6.78;;;;;;;20.32;82.09;99920.19;4992902;28;20296;-60
2021/09/15 11:40:41;;;;;;;11.55;8.45;;;;;;;20.06;83.23;99924.69;4992156;28;20062;-62
2021/09/15 11:43:26;;;;;;;12.07;7.37;;;;;;;20.20;83.20;99922.75;4991957;28;20085;-62
2021/09/15 11:46:12;;;;;;;13.90;8.10;;;;;;;20.12;82.55;99915.63;4991342;28;20552;-61
2021/09/15 11:48:57;;;;;;;9.75;6.75;;;;;;;20.17;80.80;99917.72;4991898;28;20073;-62
2021/09/15 11:51:42;;;;;;;12.38;7.80;;;;;;;20.19;82.89;99914.78;4992017;28;20061;-62
2021/09/15 11:54:29;;;;;;;11.93;7.53;;;;;;;20.19;82.94;99903.88;4991800;28;20815;-62
2021/09/15 11:57:14;;;;;;;16.27;8.48;;;;;;;20.13;81.47;99906.44;4991417;28;20058;-61
2021/09/15 12:00:01;;;;;;;12.03;8.20;;;;;;;19.89;84.38;99907.13;4992047;28;20065;-63
2021/09/15 12:02:48;;;;;;;11.75;8.25;;;;;;;19.74;84.71;99890.16;4991826;28;20409;-61
2021/09/15 12:05:33;;;;;;;11.50;8.02;;;;;;;19.69;84.41;99889.97;4992165;28;20124;-62
2021/09/15 12:08:19;;;;;;;11.48;6.95;;;;;;;19.69;84.01;99882.66;4991919;28;20061;-62
2021/09/15 12:11:05;;;;;;;11.55;8.10;;;;;;;19.67;85.11;99892.91;4992089;28;20057;-63
2021/09/15 12:13:57;;;;;;;12.93;8.18;;;;;;;19.64;85.39;99887.03;5003279;28;20076;-63
2021/09/15 12:16:43;;;;;;;14.05;9.32;;;;;;;19.65;85.58;99886.00;5010979;28;20514;-64
2021/09/15 12:19:29;;;;;;;9.77;7.63;;;;;;;19.69;85.62;99882.66;5010023;28;20506;-62
2021/09/15 12:22:19;;;;;;;13.00;8.90;;;;;;;19.74;85.42;99871.94;5011041;28;20060;-61
2021/09/15 12:25:09;;;;;;;12.32;8.50;;;;;;;19.86;85.50;99880.31;5011046;28;20102;-62
2021/09/15 12:27:57;;;;;;;14.80;8.88;;;;;;;19.92;85.65;99876.75;5010859;28;20065;-64
2021/09/15 12:30:46;;;;;;;11.82;8.73;;;;;;;19.83;86.33;99878.00;5014899;28;20061;-62
2021/09/15 12:33:33;;;;;;;11.82;8.98;;;;;;;19.86;86.08;99872.97;5015067;28;20111;-61
2021/09/15 12:36:20;;;;;;;13.48;8.48;;;;;;;19.88;85.99;99869.19;5014410;28;20562;-64
2021/09/15 12:39:12;;;;;;;11.23;7.25;;;;;;;19.90;85.81;99876.13;5015173;28;20057;-63
2021/09/15 12:41:59;;;;;;;9.70;7.50;;;;;;;19.96;84.50;99871.69;5015103;28;20151;-64
2021/09/15 12:44:45;;;;;;;14.77;8.80;;;;;;;19.98;85.81;99869.59;5014525;28;20147;-62
2021/09/15 12:47:35;;;;;;;11.35;9.05;;;;;;;19.90;86.32;99880.72;5014351;28;20304;-63
2021/09/15 12:50:23;;;;;;;14.10;9.93;;;;;;;20.00;86.26;99873.75;5014880;28;20518;-65
2021/09/15 12:53:11;;;;;;;14.10;9.23;;;;;;;20.03;86.00;99875.25;5014350;28;20092;-64
2021/09/15 12:55:56;;;;;;;13.25;9.60;;;;;;;19.72;86.36;99875.94;5014204;28;20565;-59